^^
Datos históricos de la estación: Murcia-Puente Tocinos
Diario Informe para Diciembre 23, 2019 Unidades:  Ingés    Métrico   Ambas
Diario Semanal Mensual Anual
  Máxima: Mínima: Promedio:
Temperatura: 71.2 °F 51.6 °F 59.9 °F
Punto de rocio: 48.6 °F 42.3 °F 45 °F
Humedad: 74% 36% 59%
Velocidad viento: 6.4mph 0mph 3.1mph
Racha viento: 13mph - -
Viento- - SSO
Presión: 30.3 in 30.1 in -
Precipitación: 0 in    
 
 
Tabla de datos para Diciembre 23, 2019
Hora Temperatura Punto de rocio Presión Viento Velocidad viento Racha viento Humedad Intensidad lluvia(por hora) Nubes
00:04 58.8 °F 42.3 °F 30.1 in SSO 3.6 mph 7.4 mph 54% 0 in
00:09 59 °F 42.4 °F 30.1 in SSO 3.6 mph 7 mph 54% 0 in
00:14 59.4 °F 42.3 °F 30.1 in SSO 4.3 mph 7 mph 53.2% 0 in
00:19 59.9 °F 42.4 °F 30.1 in SSO 4.7 mph 6.2 mph 52.3% 0 in
00:24 60.1 °F 42.4 °F 30.1 in SO 4.3 mph 6 mph 52% 0 in
00:29 60.1 °F 42.4 °F 30.1 in SO 4 mph 5.2 mph 52% 0 in
00:34 59.9 °F 42.6 °F 30.1 in SO 3.3 mph 5.2 mph 52.7% 0 in
00:39 59.5 °F 42.6 °F 30.1 in SO 2.9 mph 5 mph 53.6% 0 in
00:44 59 °F 42.6 °F 30.1 in Sur 2.5 mph 4.6 mph 54.7% 0 in
00:49 58.3 °F 42.8 °F 30.1 in ESE 2.4 mph 5.2 mph 56.3% 0 in
00:54 57.6 °F 42.6 °F 30.1 in Este 2.4 mph 5.2 mph 57.5% 0 in
00:59 56.7 °F 42.8 °F 30.1 in Este 2.4 mph 5.2 mph 59.4% 0 in
01:04 56.1 °F 42.6 °F 30.1 in ESE 2.9 mph 5 mph 60.5% 0 in
01:09 55.9 °F 42.6 °F 30.1 in ESE 3.1 mph 5 mph 61% 0 in
01:14 55.9 °F 42.6 °F 30.1 in ESE 2.4 mph 5 mph 61% 0 in
01:19 55.9 °F 43 °F 30.1 in SSO 2 mph 4 mph 61.5% 0 in
01:24 55.8 °F 43 °F 30.1 in OSO 1.9 mph 4.6 mph 62% 0 in
01:29 55.6 °F 43.2 °F 30.1 in SO 1.8 mph 5 mph 62.7% 0 in
01:34 55.6 °F 43.2 °F 30.1 in ONO 1.9 mph 5 mph 63% 0 in
01:39 55.6 °F 43.2 °F 30.1 in ONO 2 mph 3 mph 63% 0 in
01:44 55.4 °F 43.3 °F 30.1 in ONO 1.6 mph 4 mph 63.8% 0 in
01:49 55.2 °F 43.3 °F 30.1 in ONO 1.4 mph 5 mph 64% 0 in
01:54 55.2 °F 43.2 °F 30.1 in ONO 1.6 mph 4.6 mph 64% 0 in
01:59 55.2 °F 43.2 °F 30.1 in Oeste 1.8 mph 5 mph 64% 0 in
02:04 55.2 °F 43.7 °F 30.1 in SSE 1.9 mph 5 mph 64.8% 0 in
02:09 55.4 °F 43.3 °F 30.2 in SSE 2 mph 5 mph 64% 0 in
02:14 55.6 °F 43.7 °F 30.2 in Sur 2.2 mph 6.2 mph 64% 0 in
02:19 55.8 °F 43.7 °F 30.2 in Sur 2.4 mph 6 mph 63.7% 0 in
02:24 55.8 °F 43.5 °F 30.2 in SSE 2.8 mph 6 mph 63.6% 0 in
02:29 55.8 °F 43.7 °F 30.2 in SSE 3.1 mph 6.2 mph 63.8% 0 in
02:34 56.3 °F 43.7 °F 30.2 in Sur 3.7 mph 6.2 mph 62.9% 0 in
02:39 56.7 °F 43.7 °F 30.2 in SSE 4 mph 6.9 mph 62% 0 in
02:44 57 °F 43.7 °F 30.2 in SSE 4.2 mph 7 mph 61% 0 in
02:49 57.2 °F 43.7 °F 30.2 in Sur 4.3 mph 7 mph 60.6% 0 in
02:54 57.6 °F 43.7 °F 30.2 in SE 3.5 mph 5.2 mph 60% 0 in
02:59 57.6 °F 43.7 °F 30.2 in SE 2.9 mph 5.2 mph 60% 0 in
03:04 57 °F 43.7 °F 30.2 in SSE 3 mph 5 mph 60.8% 0 in
03:09 56.8 °F 43.7 °F 30.2 in Sur 3.1 mph 5 mph 61.4% 0 in
03:14 56.7 °F 43.9 °F 30.2 in NE 2.4 mph 4 mph 62% 0 in
03:19 56.7 °F 43.7 °F 30.2 in NO 2 mph 5.8 mph 62.2% 0 in
03:24 56.1 °F 43.7 °F 30.2 in OSO 2 mph 6 mph 63.2% 0 in
03:29 55.8 °F 43.7 °F 30.2 in OSO 2 mph 5 mph 64% 0 in
03:34 55.4 °F 43.7 °F 30.2 in ONO 2.5 mph 5.8 mph 64.5% 0 in
03:39 55 °F 43.7 °F 30.2 in ONO 2.9 mph 6 mph 65% 0 in
03:44 55 °F 43.9 °F 30.2 in SO 2.6 mph 5 mph 65.9% 0 in
03:49 55 °F 43.9 °F 30.2 in SO 2.4 mph 5.8 mph 65.8% 0 in
03:54 55.2 °F 43.7 °F 30.2 in SSO 2.7 mph 6 mph 65% 0 in
03:59 55.6 °F 44.1 °F 30.2 in SSO 2.9 mph 5 mph 65% 0 in
04:04 55.8 °F 44.1 °F 30.2 in Sur 2.5 mph 6.9 mph 65% 0 in
04:09 55.8 °F 44.2 °F 30.2 in Oeste 2.4 mph 7 mph 65% 0 in
04:14 55.8 °F 44.2 °F 30.2 in SSO 2.7 mph 6 mph 65% 0 in
04:19 55.9 °F 44.2 °F 30.2 in Sur 2.9 mph 5 mph 65% 0 in
04:24 55.8 °F 44.2 °F 30.2 in SO 2.9 mph 5 mph 65% 0 in
04:29 55.8 °F 44.2 °F 30.2 in Oeste 2.9 mph 5 mph 65% 0 in
04:34 55.4 °F 44.1 °F 30.2 in Sur 2.9 mph 5.9 mph 65.5% 0 in
04:39 55 °F 44.1 °F 30.2 in SSO 2.9 mph 6.9 mph 66.5% 0 in
04:44 54.9 °F 44.1 °F 30.2 in SSO 3.7 mph 7 mph 67% 0 in
04:49 55 °F 44.2 °F 30.2 in SSO 4.3 mph 9.2 mph 67% 0 in
04:54 55 °F 44.2 °F 30.2 in SSO 4.8 mph 9 mph 66.3% 0 in
04:59 55.6 °F 44.2 °F 30.2 in SSO 5.2 mph 9.2 mph 65.4% 0 in
05:04 55.8 °F 44.2 °F 30.2 in Sur 4.3 mph 9 mph 65% 0 in
05:09 55.8 °F 44.2 °F 30.2 in SSE 4 mph 4.6 mph 65% 0 in
05:14 55.6 °F 44.1 °F 30.2 in SSO 3 mph 5.8 mph 65.3% 0 in
05:19 55 °F 44.1 °F 30.2 in SSE 2.4 mph 6 mph 66% 0 in
05:24 54.9 °F 44.1 °F 30.2 in Sur 2.4 mph 5.2 mph 66.9% 0 in
05:29 54.7 °F 44.1 °F 30.2 in SSO 2.4 mph 5.8 mph 67.3% 0 in
05:34 54.5 °F 44.2 °F 30.2 in SSO 2.9 mph 6 mph 68% 0 in
05:39 54.3 °F 44.1 °F 30.2 in SSO 3.1 mph 6 mph 68% 0 in
05:44 54.3 °F 44.1 °F 30.2 in SSO 3.4 mph 6 mph 68% 0 in
05:49 54.3 °F 44.1 °F 30.2 in SO 3.6 mph 6 mph 68% 0 in
05:54 54.7 °F 44.1 °F 30.2 in SSO 3.6 mph 6 mph 67.3% 0 in
05:59 54.7 °F 43.9 °F 30.2 in SSO 3.6 mph 5.9 mph 67% 0 in
06:04 54.7 °F 43.9 °F 30.2 in SSE 3.3 mph 6.2 mph 67% 0 in
06:09 54.5 °F 43.7 °F 30.2 in SSE 3.1 mph 6 mph 67% 0 in
06:14 54.1 °F 43.7 °F 30.2 in Sur 3.7 mph 6.2 mph 67.7% 0 in
06:19 53.8 °F 43.7 °F 30.2 in SSO 4 mph 6 mph 68.7% 0 in
06:24 53.4 °F 43.7 °F 30.2 in SSO 3.5 mph 6.2 mph 69.4% 0 in
06:29 53.2 °F 43.7 °F 30.2 in SSO 3.1 mph 6 mph 70% 0 in
06:34 53.4 °F 43.9 °F 30.2 in SO 3.1 mph 6 mph 70% 0 in
06:39 53.4 °F 43.9 °F 30.2 in SO 3.1 mph 5 mph 70% 0 in
06:44 53.6 °F 44.1 °F 30.2 in SO 2.3 mph 3 mph 70% 0 in
06:49 53.4 °F 43.9 °F 30.2 in SO 1.8 mph 2.4 mph 70% 0 in
06:54 53.4 °F 43.9 °F 30.2 in SO 1.6 mph 2.4 mph 70% 0 in
06:59 53.2 °F 43.7 °F 30.2 in SO 1.4 mph 2.4 mph 70.2% 0 in
07:04 53.1 °F 43.9 °F 30.2 in SO 1.4 mph 4.6 mph 71% 0 in
07:09 53.1 °F 44.2 °F 30.2 in SO 1.4 mph 5 mph 71.8% 0 in
07:14 52.9 °F 44.1 °F 30.2 in SO 1.8 mph 3.6 mph 72% 0 in
07:19 52.9 °F 44.1 °F 30.2 in SO 2 mph 4 mph 72% 0 in
07:24 52.9 °F 43.7 °F 30.2 in SO 1.9 mph 4 mph 71.2% 0 in
07:29 52.9 °F 43.9 °F 30.2 in SO 1.8 mph 3.5 mph 71.6% 0 in
07:34 52.7 °F 43.9 °F 30.2 in Sur 1.6 mph 4.6 mph 71.6% 0 in
07:39 52.3 °F 43.7 °F 30.2 in SE 1.4 mph 5 mph 72% 0 in
07:44 52.2 °F 43.7 °F 30.2 in SSO 2.3 mph 5 mph 72.9% 0 in
07:49 52 °F 43.9 °F 30.2 in SSO 2.9 mph 5.8 mph 73.9% 0 in
07:54 52.2 °F 43.7 °F 30.3 in SSO 3 mph 6 mph 73.2% 0 in
07:59 52.3 °F 43.9 °F 30.3 in SSO 3.1 mph 4 mph 73% 0 in
08:04 52.3 °F 43.9 °F 30.3 in SSO 2.2 mph 3 mph 73% 0 in
08:09 52.2 °F 43.9 °F 30.3 in SSO 1.8 mph 3.6 mph 73% 0 in
08:14 52 °F 43.7 °F 30.3 in SSO 1.9 mph 4.6 mph 73.1% 0 in
08:19 51.8 °F 43.9 °F 30.3 in SSO 2 mph 5 mph 74% 0 in
08:24 51.8 °F 43.7 °F 30.3 in SSO 1.6 mph 2.3 mph 74% 0 in
08:29 51.6 °F 43.7 °F 30.3 in SSO 1.4 mph 2.9 mph 74% 0 in
08:34 51.6 °F 43.5 °F 30.3 in SSO 1.6 mph 3 mph 74% 0 in
08:39 51.6 °F 43.5 °F 30.3 in SSO 1.8 mph 3.6 mph 74% 0 in
08:44 51.8 °F 43.7 °F 30.3 in SSO 1.8 mph 4 mph 74% 0 in
08:49 52.2 °F 44.1 °F 30.3 in SSO 1.8 mph 3 mph 73.9% 0 in
08:54 52.2 °F 43.9 °F 30.3 in SSO 1.6 mph 2.3 mph 73% 0 in
08:59 52.3 °F 43.9 °F 30.3 in SO 1.4 mph 2.4 mph 72.8% 0 in
09:04 52.3 °F 43.7 °F 30.3 in SO 1.4 mph 2.4 mph 72.3% 0 in
09:09 52.3 °F 43.9 °F 30.3 in SO 1.4 mph 2.4 mph 73% 0 in
09:14 52.2 °F 43.9 °F 30.3 in SO 0.6 mph 2.4 mph 73% 0 in
09:19 52.3 °F 43.9 °F 30.3 in Calm   2.3 mph 73% 0 in
09:24 52.3 °F 44.1 °F 30.3 in Calm   2 mph 73% 0 in
09:29 52.7 °F 44.4 °F 30.3 in Calm   2.4 mph 72.9% 0 in
09:34 53.2 °F 44.4 °F 30.3 in Calm   3.5 mph 72% 0 in
09:39 53.6 °F 44.8 °F 30.3 in Calm   3.6 mph 72% 0 in
09:44 54.1 °F 45 °F 30.3 in SO 1.2 mph 4 mph 71.3% 0 in
09:49 54.5 °F 44.8 °F 30.3 in SO 2 mph 5.2 mph 70% 0 in
09:54 54.9 °F 44.8 °F 30.3 in SO 2.7 mph 6.2 mph 69% 0 in
09:59 55 °F 45.1 °F 30.3 in SSO 3.1 mph 6 mph 69% 0 in
10:04 55.4 °F 45.5 °F 30.3 in SO 2.7 mph 5 mph 69% 0 in
10:09 55.9 °F 45.5 °F 30.3 in SO 2.4 mph 5 mph 67.8% 0 in
10:14 56.7 °F 45.7 °F 30.3 in SSO 2.2 mph 5 mph 66.8% 0 in
10:19 57.2 °F 45.7 °F 30.3 in Sur 2 mph 5 mph 65.2% 0 in
10:24 57.7 °F 45.5 °F 30.3 in SSO 2.5 mph 5 mph 63.8% 0 in
10:29 58.1 °F 45.5 °F 30.3 in SSO 2.9 mph 5 mph 62.9% 0 in
10:34 58.5 °F 45.5 °F 30.3 in OSO 2.5 mph 4.7 mph 62% 0 in
10:39 58.6 °F 45.3 °F 30.3 in SO 2.4 mph 5.2 mph 61.5% 0 in
10:44 58.8 °F 45.3 °F 30.3 in OSO 2.9 mph 5.4 mph 61% 0 in
10:49 58.8 °F 45.1 °F 30.3 in OSO 3.1 mph 6 mph 60.4% 0 in
10:54 59 °F 45.1 °F 30.3 in OSO 3.4 mph 6 mph 60.1% 0 in
10:59 59.4 °F 45.5 °F 30.3 in SSO 3.6 mph 5 mph 60.3% 0 in
11:04 59.7 °F 45.7 °F 30.3 in SSO 3.3 mph 5.2 mph 59.8% 0 in
11:09 60.3 °F 45.7 °F 30.3 in SSO 3.1 mph 6.9 mph 58.4% 0 in
11:14 60.4 °F 45.7 °F 30.3 in SSO 3.7 mph 7 mph 58% 0 in
11:19 60.8 °F 45.9 °F 30.3 in Sur 4 mph 6 mph 58% 0 in
11:24 61.3 °F 46.2 °F 30.3 in SSO 3.8 mph 5.9 mph 57.6% 0 in
11:29 61.5 °F 45.5 °F 30.3 in Sur 3.6 mph 7.6 mph 55.5% 0 in
11:34 62.1 °F 45.7 °F 30.3 in Sur 4 mph 8.1 mph 55% 0 in
11:39 62.2 °F 46 °F 30.3 in Sur 4.3 mph 8 mph 55% 0 in
11:44 62.6 °F 46.2 °F 30.3 in SSO 4.5 mph 8.1 mph 54.7% 0 in
11:49 62.8 °F 45.9 °F 30.3 in Sur 4.7 mph 9.7 mph 53.9% 0 in
11:54 62.8 °F 45.9 °F 30.3 in Sur 5.5 mph 10 mph 54% 0 in
11:59 63 °F 45.9 °F 30.3 in Sur 5.9 mph 10 mph 53.8% 0 in
12:04 63 °F 45.7 °F 30.3 in Sur 6.1 mph 10.4 mph 53.2% 0 in
12:09 63.1 °F 46 °F 30.3 in Sur 6.2 mph 10.4 mph 53.5% 0 in
12:14 63.7 °F 46.2 °F 30.3 in SSO 6.2 mph 10 mph 53.1% 0 in
12:19 64 °F 46.2 °F 30.3 in Sur 6.2 mph 9 mph 52.4% 0 in
12:24 64.4 °F 45.7 °F 30.3 in SSO 5.5 mph 9.2 mph 50.9% 0 in
12:29 64.4 °F 45.3 °F 30.3 in SSO 5.2 mph 9.2 mph 50.2% 0 in
12:34 64.4 °F 45.3 °F 30.3 in SO 5.8 mph 9 mph 50.2% 0 in
12:39 64.8 °F 45.7 °F 30.3 in SSO 6.2 mph 8.1 mph 50.1% 0 in
12:44 64.9 °F 45.5 °F 30.3 in SSO 5 mph 8 mph 49.2% 0 in
12:49 65.3 °F 45.1 °F 30.3 in SSO 4.3 mph 7 mph 48.2% 0 in
12:54 65.5 °F 45.3 °F 30.3 in SO 4.1 mph 6 mph 48% 0 in
12:59 65.8 °F 45.1 °F 30.3 in ESE 4 mph 5.9 mph 47% 0 in
13:04 66 °F 44.4 °F 30.3 in OSO 3.3 mph 6.2 mph 45.7% 0 in
13:09 66.2 °F 44.2 °F 30.3 in SO 2.9 mph 6 mph 45% 0 in
13:14 66.4 °F 44.4 °F 30.3 in OSO 2.9 mph 6 mph 45% 0 in
13:19 66.7 °F 44.2 °F 30.3 in Sur 2.9 mph 6.9 mph 44.2% 0 in
13:24 66.7 °F 44.2 °F 30.3 in Sur 3 mph 7 mph 44% 0 in
13:29 67.1 °F 43.9 °F 30.3 in OSO 3.1 mph 5.9 mph 43.3% 0 in
13:34 67.1 °F 44.2 °F 30.3 in SSO 3.1 mph 6 mph 43.7% 0 in
13:39 67.3 °F 44.2 °F 30.3 in SSO 3.1 mph 5.2 mph 43.3% 0 in
13:44 67.5 °F 44.2 °F 30.3 in Sur 3 mph 5 mph 43% 0 in
13:49 67.8 °F 44.2 °F 30.3 in ESE 2.9 mph 5 mph 42.5% 0 in
13:54 68.2 °F 44.1 °F 30.3 in SE 2.3 mph 5 mph 41.9% 0 in
13:59 68.2 °F 43.7 °F 30.3 in SSO 2 mph 5.2 mph 41.3% 0 in
14:04 68.2 °F 43.7 °F 30.3 in Oeste 2.6 mph 5 mph 41% 0 in
14:09 68.2 °F 43.5 °F 30.3 in Oeste 2.9 mph 5.8 mph 41% 0 in
14:14 68.2 °F 43.5 °F 30.3 in Oeste 3 mph 6 mph 41% 0 in
14:19 68.4 °F 43.3 °F 30.3 in ONO 3.1 mph 5 mph 40.3% 0 in
14:24 68.4 °F 43.2 °F 30.3 in ONO 2.7 mph 5 mph 40% 0 in
14:29 68.5 °F 43.3 °F 30.3 in OSO 2.4 mph 5 mph 40% 0 in
14:34 68.9 °F 43.3 °F 30.3 in SSE 2.2 mph 5 mph 39.7% 0 in
14:39 69.1 °F 43.2 °F 30.3 in SSE 2 mph 5 mph 39% 0 in
14:44 69.3 °F 43.3 °F 30.3 in SSE 2.2 mph 5 mph 39% 0 in
14:49 69.6 °F 43.2 °F 30.3 in SSO 2.4 mph 4.7 mph 38.4% 0 in
14:54 69.8 °F 42.6 °F 30.3 in SO 2.1 mph 5 mph 37.3% 0 in
14:59 70.2 °F 42.3 °F 30.3 in SSE 1.8 mph 5 mph 36.6% 0 in
15:04 70.3 °F 42.3 °F 30.3 in ENE 1.6 mph 3.6 mph 36.4% 0 in
15:09 70.5 °F 42.4 °F 30.3 in SO 1.4 mph 5.2 mph 36.3% 0 in
15:14 70.5 °F 42.3 °F 30.3 in Sur 1.8 mph 5 mph 36% 0 in
15:19 70.7 °F 42.4 °F 30.3 in SSE 2 mph 4.3 mph 36.2% 0 in
15:24 70.9 °F 43.2 °F 30.3 in SO 2.2 mph 5.9 mph 37% 0 in
15:29 70.5 °F 43 °F 30.3 in Oeste 2.4 mph 6 mph 37% 0 in
15:34 70.7 °F 43.2 °F 30.3 in Sur 2.4 mph 5.2 mph 37% 0 in
15:39 70.9 °F 43 °F 30.3 in SO 2.4 mph 5 mph 36.5% 0 in
15:44 70.9 °F 42.8 °F 30.3 in SO 2.7 mph 5.2 mph 36.1% 0 in
15:49 71.1 °F 42.6 °F 30.3 in SSO 2.9 mph 5 mph 36% 0 in
15:54 71.1 °F 42.6 °F 30.3 in Sur 2.6 mph 5 mph 36% 0 in
15:59 71.1 °F 42.8 °F 30.3 in SO 2.4 mph 6.2 mph 36.1% 0 in
16:04 71.1 °F 42.8 °F 30.3 in SSO 2.7 mph 6 mph 36.1% 0 in
16:09 71.2 °F 43 °F 30.3 in Sur 3.1 mph 6 mph 36.1% 0 in
16:14 71.1 °F 43.5 °F 30.3 in SE 3 mph 6.2 mph 37% 0 in
16:19 71.1 °F 43.7 °F 30.3 in SSE 2.9 mph 6 mph 37.3% 0 in
16:24 70.9 °F 43.7 °F 30.3 in SSE 3.4 mph 6.4 mph 37.4% 0 in
16:29 70.5 °F 43.9 °F 30.3 in SSE 3.6 mph 8.1 mph 38.3% 0 in
16:34 70.3 °F 44.2 °F 30.3 in SSE 4.6 mph 8.5 mph 39.1% 0 in
16:39 70 °F 44.6 °F 30.3 in SSE 5.2 mph 9 mph 40.1% 0 in
16:44 70 °F 45.1 °F 30.3 in Sur 5.3 mph 8.1 mph 40.9% 0 in
16:49 70 °F 45.1 °F 30.3 in Sur 5.4 mph 9.2 mph 41% 0 in
16:54 69.8 °F 45.7 °F 30.3 in Sur 5.7 mph 9 mph 41.9% 0 in
16:59 69.6 °F 45.7 °F 30.3 in SSE 5.9 mph 8.1 mph 42.2% 0 in
17:04 69.4 °F 46 °F 30.3 in SSE 5.6 mph 8.5 mph 43% 0 in
17:09 69.4 °F 46 °F 30.3 in Sur 5.4 mph 9 mph 43.1% 0 in
17:14 69.3 °F 45.9 °F 30.3 in Sur 5 mph 8 mph 43% 0 in
17:19 69.4 °F 46 °F 30.3 in Sur 4.7 mph 6 mph 43.1% 0 in
17:24 69.4 °F 46 °F 30.3 in Sur 4.3 mph 6.9 mph 43.2% 0 in
17:29 69.3 °F 46.4 °F 30.3 in SSE 4 mph 7 mph 44% 0 in
17:34 69.3 °F 46.4 °F 30.3 in SSE 3 mph 4.6 mph 44% 0 in
17:39 68.9 °F 46.6 °F 30.3 in SE 2.4 mph 5 mph 44.8% 0 in
17:44 68.5 °F 46.8 °F 30.3 in SE 2.4 mph 5 mph 45.7% 0 in
17:49 68.2 °F 47.1 °F 30.3 in SSE 2.4 mph 5 mph 46.9% 0 in
17:54 67.6 °F 47.1 °F 30.3 in SSE 2.4 mph 5 mph 47.9% 0 in
17:59 67.3 °F 47.5 °F 30.3 in SSE 2.4 mph 5 mph 48.9% 0 in
18:04 66.9 °F 47.7 °F 30.3 in SSE 2.9 mph 5 mph 49.9% 0 in
18:09 66.7 °F 47.8 °F 30.3 in SSE 3.1 mph 5 mph 50.8% 0 in
18:14 66.6 °F 47.8 °F 30.3 in SSE 2.7 mph 5 mph 51% 0 in
18:19 66.2 °F 47.7 °F 30.3 in ESE 2.4 mph 5.8 mph 51% 0 in
18:24 65.7 °F 47.5 °F 30.3 in ESE 2.4 mph 6 mph 51.9% 0 in
18:29 65.3 °F 47.5 °F 30.3 in ESE 2.4 mph 5 mph 52.5% 0 in
18:34 64.9 °F 47.5 °F 30.3 in SSE 2.4 mph 5 mph 53.1% 0 in
18:39 64.8 °F 47.7 °F 30.3 in Sur 2.4 mph 5.9 mph 54% 0 in
18:44 64.6 °F 47.8 °F 30.3 in SSO 3.4 mph 6.9 mph 54.5% 0 in
18:49 64.4 °F 48 °F 30.3 in SSO 4 mph 7.6 mph 55% 0 in
18:54 64.2 °F 48.2 °F 30.3 in SO 4.5 mph 10 mph 55.9% 0 in
18:59 63.9 °F 48.4 °F 30.3 in SO 4.7 mph 10.7 mph 57% 0 in
19:04 63.5 °F 48.4 °F 30.3 in SO 5.7 mph 13 mph 58% 0 in
19:09 63.1 °F 48.6 °F 30.3 in SO 6.2 mph 13 mph 58.9% 0 in
19:14 63 °F 48.6 °F 30.3 in SO 6.3 mph 12 mph 59.3% 0 in
19:19 62.6 °F 48.6 °F 30.3 in SO 6.4 mph 12 mph 60% 0 in
19:24 62.2 °F 48.4 °F 30.3 in SSO 6.4 mph 12 mph 60.3% 0 in
19:29 62.1 °F 48.4 °F 30.3 in SSO 6.4 mph 10.7 mph 61% 0 in
19:34 61.9 °F 48.4 °F 30.3 in SO 5.7 mph 11 mph 61% 0 in
19:39 61.5 °F 48.4 °F 30.3 in SO 5.2 mph 11.5 mph 61.7% 0 in
19:44 61.3 °F 48.4 °F 30.3 in SO 5.7 mph 12 mph 62% 0 in
19:49 61.3 °F 48.2 °F 30.3 in SSO 5.9 mph 12 mph 62% 0 in
19:54 61.2 °F 48 °F 30.3 in SSO 5.6 mph 9 mph 62% 0 in
19:59 61.2 °F 48 °F 30.3 in SSO 5.4 mph 9 mph 62% 0 in
20:04 61 °F 48 °F 30.3 in SSO 4.7 mph 9 mph 62.4% 0 in
20:09 60.6 °F 48 °F 30.3 in SSO 4.3 mph 9 mph 63% 0 in
20:14 60.4 °F 47.8 °F 30.3 in SSO 4.5 mph 7.4 mph 63.2% 0 in
20:19 60.3 °F 48 °F 30.3 in SSO 4.7 mph 9.2 mph 64% 0 in
20:24 60.1 °F 47.8 °F 30.3 in SSO 5.4 mph 9.2 mph 64.1% 0 in
20:29 59.7 °F 48 °F 30.3 in SSO 5.9 mph 9.2 mph 65% 0 in
20:34 59.7 °F 47.8 °F 30.3 in SSO 5.9 mph 9 mph 65% 0 in
20:39 59.7 °F 47.8 °F 30.3 in SSO 5.9 mph 8.1 mph 65% 0 in
20:44 59.7 °F 47.8 °F 30.3 in SSO 5.5 mph 8 mph 65% 0 in
20:49 59.5 °F 47.8 °F 30.3 in SSO 5.2 mph 7.6 mph 65% 0 in
20:54 59.4 °F 47.8 °F 30.3 in SSO 5.2 mph 8.1 mph 65.6% 0 in
20:59 59.4 °F 48 °F 30.3 in SO 5.2 mph 7 mph 66% 0 in
21:04 59.2 °F 47.8 °F 30.3 in SSO 4.4 mph 6.2 mph 66% 0 in
21:09 59 °F 48 °F 30.3 in Sur 4 mph 6 mph 66.6% 0 in
21:14 58.8 °F 47.8 °F 30.3 in Sur 3.8 mph 5.4 mph 67% 0 in
21:19 58.6 °F 47.8 °F 30.3 in SSO 3.6 mph 6 mph 67% 0 in
21:24 58.6 °F 47.7 °F 30.3 in Sur 2.8 mph 6 mph 67% 0 in
21:29 58.5 °F 47.8 °F 30.3 in SSO 2.4 mph 4.7 mph 67.7% 0 in
21:34 58.3 °F 47.8 °F 30.3 in SO 2.7 mph 5.9 mph 68% 0 in
21:39 58.1 °F 47.7 °F 30.3 in SO 2.9 mph 6.9 mph 68% 0 in
21:44 57.9 °F 47.5 °F 30.3 in OSO 3.3 mph 7 mph 68% 0 in
21:49 57.7 °F 47.3 °F 30.3 in OSO 3.6 mph 5.8 mph 68% 0 in
21:54 57.7 °F 47.3 °F 30.3 in SO 3.2 mph 6 mph 68.1% 0 in
21:59 57.6 °F 47.5 °F 30.3 in SSO 2.9 mph 5.2 mph 69% 0 in
22:04 57.6 °F 47.5 °F 30.3 in SO 2.9 mph 5 mph 69% 0 in
22:09 57.4 °F 47.3 °F 30.3 in NNE 2.9 mph 4.7 mph 69% 0 in
22:14 56.8 °F 47.1 °F 30.3 in NNE 2.5 mph 5 mph 69.6% 0 in
22:19 56.5 °F 46.9 °F 30.3 in NE 2.4 mph 5.2 mph 70.7% 0 in
22:24 55.9 °F 46.9 °F 30.3 in NE 2.9 mph 5 mph 71.9% 0 in
22:29 55.8 °F 47.1 °F 30.3 in NE 3.1 mph 5 mph 72.5% 0 in
22:34 55.6 °F 47.1 °F 30.3 in NE 1.1 mph 2.4 mph 73% 0 in
22:39 55.6 °F 47.1 °F 30.3 in Calm   2.4 mph 73% 0 in
22:44 55.6 °F 47.1 °F 30.3 in Calm   3.6 mph 73% 0 in
22:49 55.4 °F 46.9 °F 30.3 in Calm   5.9 mph 73% 0 in
22:54 55.4 °F 46.8 °F 30.3 in SSO 1.9 mph 6 mph 73% 0 in
22:59 55.2 °F 46.8 °F 30.3 in SSO 3.1 mph 7.4 mph 73% 0 in
23:04 55.2 °F 46.8 °F 30.3 in SO 3.9 mph 7 mph 73% 0 in
23:09 55.2 °F 46.6 °F 30.3 in SO 4.3 mph 7 mph 72.8% 0 in
23:14 55.2 °F 46.2 °F 30.3 in SO 3.9 mph 6 mph 72% 0 in
23:19 55.2 °F 46.2 °F 30.3 in SO 3.6 mph 6 mph 72% 0 in
23:24 55.2 °F 46.4 °F 30.3 in SO 2.9 mph 5 mph 72.2% 0 in
23:29 55 °F 46.6 °F 30.3 in SSO 2.4 mph 5 mph 73% 0 in
23:34 55 °F 46.6 °F 30.3 in Sur 2.4 mph 4 mph 73% 0 in
23:39 55 °F 46.6 °F 30.3 in Sur 2.4 mph 3 mph 73% 0 in
23:44 55 °F 46.6 °F 30.3 in Sur 0.9 mph 2.9 mph 73% 0 in
23:49 55 °F 46.6 °F 30.3 in Calm   3 mph 73% 0 in
23:54 55 °F 46.6 °F 30.3 in Calm   4.6 mph 73% 0 in
23:59 55 °F 46.6 °F 30.3 in Calm   5 mph 73% 0 in
Murcia-Puente Tocinos, Espa?a
Compliments of Weather Underground - 3.25 mb

La estación de MeteoMurcia.com, publica sus datos en los siguientes proyectos:

Weather Underground PWS IMURCIAP2 Meteoclimatic www.awekas.at

W3Counter
Web Analytics